Time;durP1;ratioP1;P1;durP2;ratioP2;P2;SDS_P1;SDS_P2;PMS_P1;PMS_P2;Temp;Humidity;BMP_temperature;BMP_pressure;BME280_temperature;BME280_humidity;BME280_pressure;Samples;Min_cycle;Max_cycle;Signal;HPM_P1;HPM_P2
2022/04/22 00:00:13;;;;;;;7.70;5.67;;;11.50;59.70;;;;;;941306;150;27288;-74
2022/04/22 00:02:39;;;;;;;7.20;6.50;;;11.50;59.70;;;;;;942563;148;27332;-74
2022/04/22 00:05:06;;;;;;;7.60;6.70;;;11.40;59.60;;;;;;942351;150;27441;-74
2022/04/22 00:07:33;;;;;;;7.03;6.33;;;11.40;59.60;;;;;;941877;148;27913;-74
2022/04/22 00:09:59;;;;;;;6.83;6.10;;;11.40;60.40;;;;;;941827;151;27381;-74
2022/04/22 00:12:26;;;;;;;8.33;6.57;;;11.30;60.00;;;;;;942567;150;27729;-74
2022/04/22 00:14:53;;;;;;;7.73;6.73;;;11.30;60.00;;;;;;942389;150;27323;-74
2022/04/22 00:17:19;;;;;;;6.63;6.03;;;11.20;60.10;;;;;;943046;150;27364;-74
2022/04/22 00:19:45;;;;;;;7.50;6.30;;;11.20;60.00;;;;;;942621;148;27496;-74
2022/04/22 00:22:12;;;;;;;7.20;6.50;;;11.10;60.20;;;;;;934875;152;27406;-74
2022/04/22 00:24:39;;;;;;;7.70;6.63;;;11.10;60.20;;;;;;934041;151;27342;-74
2022/04/22 00:27:05;;;;;;;8.80;6.97;;;11.00;60.30;;;;;;934403;152;27299;-74
2022/04/22 00:29:32;;;;;;;8.43;6.70;;;11.00;60.30;;;;;;933510;151;27672;-74
2022/04/22 00:31:58;;;;;;;8.97;6.77;;;10.90;60.70;;;;;;932123;150;27758;-74
2022/04/22 00:34:25;;;;;;;7.60;6.80;;;10.90;60.50;;;;;;933659;152;28639;-74
2022/04/22 00:36:52;;;;;;;8.13;7.33;;;10.80;60.60;;;;;;933997;152;27266;-74
2022/04/22 00:39:18;;;;;;;10.10;7.87;;;10.80;61.10;;;;;;934218;151;27318;-74
2022/04/22 00:41:45;;;;;;;8.47;7.30;;;10.70;61.10;;;;;;936254;151;27421;-74
2022/04/22 00:44:11;;;;;;;7.87;7.07;;;10.70;61.40;;;;;;934575;152;27434;-74
2022/04/22 00:46:38;;;;;;;7.73;6.93;;;10.70;61.60;;;;;;936092;152;27368;-74
2022/04/22 00:49:05;;;;;;;11.07;8.47;;;10.60;61.40;;;;;;934711;152;27687;-74
2022/04/22 00:51:31;;;;;;;9.47;7.67;;;10.60;61.30;;;;;;934245;152;27414;-74
2022/04/22 00:53:58;;;;;;;9.10;7.57;;;10.50;61.70;;;;;;933810;151;27316;-74
2022/04/22 00:56:24;;;;;;;8.93;7.47;;;10.50;61.80;;;;;;935556;150;27398;-74
2022/04/22 00:58:52;;;;;;;8.93;7.90;;;10.50;62.20;;;;;;932494;151;27348;-74
2022/04/22 01:01:17;;;;;;;9.30;8.30;;;10.40;62.50;;;;;;935787;149;28705;-74
2022/04/22 01:11:58;;;;;;;9.97;8.90;;;10.30;62.30;;;;;;934062;152;27890;-74
2022/04/22 01:14:25;;;;;;;10.23;9.23;;;10.30;62.80;;;;;;934434;149;27460;-74
2022/04/22 01:16:51;;;;;;;8.87;7.97;;;10.30;62.80;;;;;;933232;151;27309;-74
2022/04/22 01:19:18;;;;;;;9.67;8.37;;;10.30;63.00;;;;;;935365;151;27394;-74
2022/04/22 01:21:44;;;;;;;10.17;8.13;;;10.30;63.10;;;;;;936811;151;27321;-74
2022/04/22 01:24:11;;;;;;;10.47;8.70;;;10.30;63.20;;;;;;934318;152;27425;-74
2022/04/22 01:26:38;;;;;;;10.03;9.03;;;10.30;63.30;;;;;;933453;152;27449;-74
2022/04/22 01:29:04;;;;;;;11.10;8.60;;;10.30;63.40;;;;;;933702;150;27323;-74
2022/04/22 01:31:31;;;;;;;9.83;8.77;;;10.30;63.60;;;;;;936351;151;27307;-74
2022/04/22 01:33:57;;;;;;;11.27;9.30;;;10.30;63.70;;;;;;933614;152;27352;-74
2022/04/22 01:36:24;;;;;;;10.00;8.93;;;10.30;64.40;;;;;;935695;152;27317;-74
2022/04/22 01:38:51;;;;;;;9.40;8.43;;;10.20;63.50;;;;;;934104;152;27429;-74
2022/04/22 01:41:17;;;;;;;11.50;9.50;;;10.30;63.80;;;;;;932749;152;27753;-74
2022/04/22 01:43:44;;;;;;;11.10;9.00;;;10.30;63.90;;;;;;934227;152;27328;-74
2022/04/22 01:46:10;;;;;;;9.73;8.70;;;10.30;64.00;;;;;;934013;152;27350;-74
2022/04/22 01:48:37;;;;;;;10.13;8.80;;;10.30;64.20;;;;;;933559;152;27326;-74
2022/04/22 01:51:03;;;;;;;10.83;9.10;;;10.30;64.00;;;;;;936043;150;27337;-74
2022/04/22 01:53:30;;;;;;;11.80;8.80;;;10.30;64.20;;;;;;935159;151;27811;-74
2022/04/22 01:55:57;;;;;;;9.53;8.07;;;10.30;64.00;;;;;;934268;152;27414;-74
2022/04/22 01:58:23;;;;;;;10.00;8.80;;;10.30;64.20;;;;;;934375;152;27285;-74
2022/04/22 02:00:50;;;;;;;10.97;9.00;;;10.30;64.20;;;;;;935229;152;27326;-74
2022/04/22 02:03:16;;;;;;;10.37;9.27;;;10.20;64.30;;;;;;933528;151;27372;-74
2022/04/22 02:05:43;;;;;;;10.27;8.30;;;10.20;64.30;;;;;;935395;152;27373;-74
2022/04/22 02:08:10;;;;;;;9.17;8.27;;;10.20;64.40;;;;;;933702;152;27315;-74
2022/04/22 02:10:36;;;;;;;11.10;9.40;;;10.20;64.50;;;;;;934969;152;27882;-74
2022/04/22 02:13:03;;;;;;;9.90;8.87;;;10.20;64.70;;;;;;934849;150;27344;-74
2022/04/22 02:15:29;;;;;;;10.13;8.70;;;10.20;64.80;;;;;;934669;150;27351;-74
2022/04/22 02:17:56;;;;;;;12.50;10.33;;;10.10;64.90;;;;;;934066;152;27374;-74
2022/04/22 02:20:23;;;;;;;12.97;10.73;;;10.10;65.00;;;;;;935275;151;27462;-74
2022/04/22 02:22:49;;;;;;;11.53;10.17;;;10.10;65.10;;;;;;940215;150;27323;-74
2022/04/22 02:25:16;;;;;;;9.77;8.87;;;10.00;65.00;;;;;;941321;151;27327;-76
2022/04/22 02:30:28;;;;;;;8.80;7.57;;;9.90;65.20;;;;;;941374;148;27315;-76
2022/04/22 02:32:54;;;;;;;8.77;7.80;;;9.80;65.00;;;;;;941277;150;27461;-76
2022/04/22 02:35:21;;;;;;;11.83;9.13;;;9.70;65.10;;;;;;941681;151;27440;-76
2022/04/22 02:37:47;;;;;;;8.53;7.73;;;9.60;65.20;;;;;;942281;150;27376;-75
2022/04/22 02:45:26;;;;;;;10.03;8.70;;;9.60;65.30;;;;;;941767;150;27311;-76
2022/04/22 02:45:27;;;;;;;10.57;7.70;;;9.40;65.60;;;;;;942797;151;27343;-76
2022/04/22 02:47:56;;;;;;;10.23;8.27;;;9.30;65.60;;;;;;941437;151;27857;-76
2022/04/22 02:50:23;;;;;;;9.27;8.27;;;9.20;65.80;;;;;;941107;151;27272;-76
2022/04/22 02:52:49;;;;;;;9.93;8.23;;;9.20;66.10;;;;;;941178;151;27339;-76
2022/04/22 02:55:16;;;;;;;9.07;7.33;;;9.10;66.30;;;;;;943913;150;27423;-76
2022/04/22 02:57:43;;;;;;;10.73;7.50;;;9.00;66.40;;;;;;943577;150;27426;-76
2022/04/22 03:00:09;;;;;;;10.93;8.73;;;9.00;66.60;;;;;;942092;151;27386;-76
2022/04/22 03:02:36;;;;;;;11.60;8.50;;;8.90;66.80;;;;;;942325;150;27801;-76
2022/04/22 03:05:02;;;;;;;11.87;9.03;;;8.90;66.90;;;;;;944726;151;27314;-76
2022/04/22 03:07:29;;;;;;;11.63;9.23;;;8.80;67.20;;;;;;941258;151;28317;-76
2022/04/22 03:09:55;;;;;;;12.67;8.47;;;8.80;67.40;;;;;;942830;151;27444;-76
2022/04/22 03:12:22;;;;;;;10.97;9.10;;;8.70;67.60;;;;;;939318;150;27393;-76
2022/04/22 03:14:49;;;;;;;11.30;9.50;;;8.70;67.80;;;;;;942797;150;27339;-75
2022/04/22 03:17:15;;;;;;;11.90;9.77;;;8.70;67.90;;;;;;943990;150;27351;-75
2022/04/22 03:19:43;;;;;;;11.27;8.83;;;8.70;68.20;;;;;;941664;151;27355;-76
2022/04/22 03:22:08;;;;;;;14.80;10.43;;;8.70;68.40;;;;;;941970;148;27383;-76
2022/04/22 03:24:36;;;;;;;10.63;9.23;;;8.70;68.60;;;;;;940233;151;27836;-76
2022/04/22 03:27:01;;;;;;;10.40;9.27;;;8.70;68.60;;;;;;941136;151;27328;-76
2022/04/22 03:29:28;;;;;;;11.57;10.13;;;8.70;68.90;;;;;;941480;148;27369;-76
2022/04/22 03:31:55;;;;;;;11.17;9.97;;;8.70;68.50;;;;;;942004;150;27316;-76
2022/04/22 03:34:22;;;;;;;11.53;9.87;;;8.70;68.80;;;;;;941312;151;27436;-76
2022/04/22 03:36:49;;;;;;;11.80;9.53;;;8.70;69.10;;;;;;942521;151;27408;-76
2022/04/22 03:39:14;;;;;;;11.27;9.47;;;8.70;69.10;;;;;;942726;151;27341;-76
2022/04/22 03:41:41;;;;;;;10.70;9.57;;;8.70;69.30;;;;;;942487;150;27401;-76
2022/04/22 03:44:08;;;;;;;11.57;9.83;;;8.70;69.40;;;;;;944344;150;27295;-76
2022/04/22 03:46:34;;;;;;;11.83;10.30;;;8.80;69.30;;;;;;941639;150;27978;-75
2022/04/22 03:49:01;;;;;;;13.57;9.77;;;8.80;69.40;;;;;;941659;151;27432;-76
2022/04/22 03:51:27;;;;;;;13.17;10.13;;;8.80;69.40;;;;;;941878;151;27424;-76
2022/04/22 03:53:54;;;;;;;13.73;10.40;;;8.70;69.40;;;;;;942203;148;27374;-75
2022/04/22 03:59:05;;;;;;;12.30;10.23;;;8.70;68.70;;;;;;941953;151;27396;-74
2022/04/22 04:01:32;;;;;;;12.47;10.00;;;8.70;68.70;;;;;;943161;151;27484;-74
2022/04/22 04:03:58;;;;;;;15.73;11.10;;;8.70;68.60;;;;;;939783;151;27456;-74
2022/04/22 04:06:26;;;;;;;11.97;10.67;;;8.70;68.80;;;;;;940359;151;27297;-74
2022/04/22 04:17:09;;;;;;;13.73;10.37;;;8.70;69.10;;;;;;941756;151;27410;-74
2022/04/22 04:25:04;;;;;;;11.03;9.87;;;8.70;69.60;;;;;;949923;150;27318;-74
2022/04/22 04:27:31;;;;;;;11.63;9.87;;;8.80;69.60;;;;;;945728;150;27349;-74
2022/04/22 04:29:57;;;;;;;11.53;10.17;;;8.80;69.90;;;;;;947134;147;27439;-74
2022/04/22 04:32:24;;;;;;;12.67;9.73;;;8.80;69.90;;;;;;948424;150;27410;-74
2022/04/22 04:34:51;;;;;;;13.30;11.10;;;8.80;70.00;;;;;;947196;150;27865;-74
2022/04/22 04:37:17;;;;;;;13.47;11.00;;;8.80;70.00;;;;;;947154;150;27314;-74
2022/04/22 04:39:44;;;;;;;14.53;12.10;;;8.90;70.30;;;;;;946852;148;28362;-74
2022/04/22 04:42:10;;;;;;;13.53;11.50;;;8.90;70.20;;;;;;944184;148;27448;-73
2022/04/22 04:44:37;;;;;;;14.63;11.20;;;8.90;70.20;;;;;;946538;148;27298;-74
2022/04/22 04:47:04;;;;;;;12.83;11.00;;;9.00;70.30;;;;;;947146;150;27410;-74
2022/04/22 04:49:30;;;;;;;15.50;11.27;;;9.10;70.60;;;;;;948335;148;27318;-74
2022/04/22 04:51:57;;;;;;;13.80;11.00;;;9.20;70.70;;;;;;946327;150;27860;-74
2022/04/22 04:54:23;;;;;;;12.47;10.97;;;9.40;71.30;;;;;;945943;150;27326;-74
2022/04/22 04:56:53;;;;;;;15.93;12.70;;;9.50;71.40;;;;;;946822;150;27354;-74
2022/04/22 04:59:20;;;;;;;14.93;13.10;;;9.70;71.80;;;;;;949940;150;27453;-74
2022/04/22 05:01:46;;;;;;;15.57;13.87;;;10.00;72.10;;;;;;946099;150;27371;-74
2022/04/22 05:04:12;;;;;;;13.83;11.97;;;10.30;72.20;;;;;;946422;148;27369;-74
2022/04/22 05:06:40;;;;;;;12.50;11.07;;;10.60;72.10;;;;;;948016;148;27720;-74
2022/04/22 05:09:06;;;;;;;11.77;10.57;;;11.00;72.00;;;;;;947073;149;27372;-74
2022/04/22 05:11:32;;;;;;;11.97;10.77;;;11.30;71.60;;;;;;947810;150;27334;-74
2022/04/22 05:13:59;;;;;;;11.07;9.87;;;11.70;71.40;;;;;;946860;148;27243;-74
2022/04/22 05:16:25;;;;;;;12.00;9.30;;;12.00;71.20;;;;;;947839;148;27327;-74
2022/04/22 05:18:52;;;;;;;10.83;9.50;;;12.40;70.90;;;;;;947579;150;27330;-74
2022/04/22 05:21:19;;;;;;;11.57;10.13;;;12.80;70.40;;;;;;946489;150;27672;-74
2022/04/22 05:23:45;;;;;;;11.20;9.23;;;13.20;69.90;;;;;;946359;150;27428;-74
2022/04/22 05:26:12;;;;;;;11.07;9.97;;;13.60;69.40;;;;;;946791;148;27331;-74
2022/04/22 05:28:38;;;;;;;11.07;9.73;;;14.00;69.00;;;;;;945723;148;27347;-74
2022/04/22 05:33:51;;;;;;;9.70;8.73;;;14.80;67.80;;;;;;947122;150;27441;-74
2022/04/22 05:36:18;;;;;;;11.67;9.80;;;15.20;67.30;;;;;;945304;150;27349;-75
2022/04/22 05:38:43;;;;;;;9.67;8.67;;;15.60;66.70;;;;;;947334;150;27347;-75
2022/04/22 05:41:09;;;;;;;9.63;8.63;;;16.00;66.20;;;;;;945511;150;27280;-74
2022/04/22 05:43:37;;;;;;;8.95;8.10;;;16.40;65.30;;;;;;947895;149;27293;-74
2022/04/22 05:46:03;;;;;;;8.60;7.65;;;16.90;64.90;;;;;;946465;149;27367;-76
2022/04/22 05:48:29;;;;;;;8.38;7.58;;;17.30;63.90;;;;;;948266;150;27772;-75
2022/04/22 05:50:56;;;;;;;8.63;7.78;;;17.70;63.40;;;;;;945076;150;27308;-75
2022/04/22 05:53:22;;;;;;;8.20;7.37;;;18.00;62.30;;;;;;947406;150;27323;-75
2022/04/22 05:55:49;;;;;;;9.08;7.87;;;18.40;61.60;;;;;;947776;150;27311;-75
2022/04/22 05:58:16;;;;;;;9.48;7.62;;;18.80;60.90;;;;;;946022;150;27247;-75
2022/04/22 06:00:42;;;;;;;7.67;6.92;;;19.10;60.10;;;;;;946644;148;27508;-75
2022/04/22 06:03:09;;;;;;;7.72;7.03;;;19.40;59.60;;;;;;948803;148;27486;-75
2022/04/22 06:05:35;;;;;;;7.58;6.87;;;19.80;59.10;;;;;;946728;150;27459;-74
2022/04/22 06:10:50;;;;;;;6.50;5.90;;;20.50;58.30;;;;;;947759;150;27404;-74
2022/04/22 06:13:16;;;;;;;6.78;6.17;;;21.00;58.30;;;;;;945943;148;27447;-74
2022/04/22 06:15:43;;;;;;;13.45;6.05;;;21.30;57.50;;;;;;947615;150;27333;-74
2022/04/22 06:18:09;;;;;;;6.55;5.62;;;21.80;56.90;;;;;;947528;150;27702;-74
2022/04/22 06:20:36;;;;;;;7.17;6.03;;;22.20;56.30;;;;;;947085;150;27330;-74
2022/04/22 06:23:03;;;;;;;5.97;5.05;;;22.50;55.30;;;;;;945449;148;27260;-74
2022/04/22 06:25:29;;;;;;;6.10;5.50;;;22.90;54.80;;;;;;935840;148;27399;-74
2022/04/22 06:27:56;;;;;;;5.62;5.12;;;23.30;54.30;;;;;;933352;152;27330;-74
2022/04/22 06:30:22;;;;;;;6.47;5.90;;;23.60;53.60;;;;;;934364;149;27380;-74
2022/04/22 06:32:49;;;;;;;6.17;5.58;;;23.90;52.30;;;;;;933690;151;27378;-74
2022/04/22 06:35:16;;;;;;;5.80;5.35;;;24.10;51.80;;;;;;933766;152;27431;-74
2022/04/22 06:37:42;;;;;;;5.72;5.22;;;24.30;51.30;;;;;;932790;151;27283;-74
2022/04/22 06:45:46;;;;;;;5.37;4.95;;;24.90;49.70;;;;;;934251;151;27313;-74
2022/04/22 06:48:14;;;;;;;4.67;4.28;;;25.10;49.60;;;;;;933970;152;27396;-74
2022/04/22 06:50:40;;;;;;;5.33;4.83;;;25.30;49.60;;;;;;932595;151;27292;-75
2022/04/22 06:53:06;;;;;;;5.22;4.83;;;25.50;48.90;;;;;;934926;152;27394;-75
2022/04/22 06:55:34;;;;;;;6.10;5.30;;;25.80;48.70;;;;;;933203;151;27393;-75
2022/04/22 06:57:59;;;;;;;5.20;4.72;;;26.20;48.50;;;;;;933687;151;27241;-74
2022/04/22 07:00:26;;;;;;;4.87;4.47;;;26.50;48.30;;;;;;933154;152;27314;-74
2022/04/22 07:02:53;;;;;;;4.00;3.70;;;26.80;47.90;;;;;;935654;150;27305;-74
2022/04/22 07:05:19;;;;;;;4.08;3.77;;;27.10;47.40;;;;;;934724;152;27352;-75
2022/04/22 07:07:47;;;;;;;4.50;3.72;;;27.50;47.10;;;;;;934261;151;27504;-75
2022/04/22 07:10:12;;;;;;;4.20;3.90;;;27.90;46.80;;;;;;933519;152;27411;-75
2022/04/22 07:12:39;;;;;;;4.15;3.85;;;28.20;45.60;;;;;;934467;150;28113;-75
2022/04/22 07:15:06;;;;;;;4.47;4.08;;;28.60;44.70;;;;;;935297;152;27254;-75
2022/04/22 07:17:35;;;;;;;4.17;3.77;;;28.80;44.00;;;;;;934274;151;27342;-75
2022/04/22 07:20:02;;;;;;;4.35;3.95;;;29.00;43.60;;;;;;934066;152;27488;-75
2022/04/22 07:22:28;;;;;;;4.00;3.70;;;29.20;42.50;;;;;;934834;152;27358;-75
2022/04/22 07:24:56;;;;;;;3.72;3.15;;;29.40;42.50;;;;;;939989;150;27383;-75
2022/04/22 07:27:21;;;;;;;4.00;3.27;;;29.40;42.50;;;;;;947567;149;27392;-75
2022/04/22 07:29:48;;;;;;;3.98;3.67;;;29.60;42.90;;;;;;946243;147;27453;-75
2022/04/22 07:32:16;;;;;;;4.00;3.67;;;29.90;42.80;;;;;;948129;149;27323;-75
2022/04/22 07:34:41;;;;;;;3.45;3.15;;;30.30;41.80;;;;;;946580;147;27360;-76
2022/04/22 07:37:09;;;;;;;3.27;2.98;;;30.50;41.20;;;;;;944790;150;27327;-76
2022/04/22 07:39:38;;;;;;;3.42;3.22;;;30.80;40.80;;;;;;947801;150;27306;-76
2022/04/22 07:42:02;;;;;;;3.15;2.95;;;30.90;40.10;;;;;;945169;148;27270;-76
2022/04/22 07:47:12;;;;;;;3.35;3.12;;;31.20;39.00;;;;;;947501;150;27379;-76
2022/04/22 07:49:40;;;;;;;4.90;3.17;;;31.40;39.10;;;;;;946846;148;27324;-76
2022/04/22 07:52:06;;;;;;;4.65;3.85;;;31.50;38.30;;;;;;946608;150;27307;-76
2022/04/22 07:54:32;;;;;;;3.72;3.42;;;31.60;37.50;;;;;;948434;148;27295;-76
2022/04/22 07:56:59;;;;;;;3.35;3.05;;;31.60;37.80;;;;;;947058;148;27272;-76
2022/04/22 07:59:28;;;;;;;3.58;3.33;;;31.70;37.70;;;;;;948445;148;27355;-76
2022/04/22 08:01:52;;;;;;;3.42;3.22;;;31.80;37.50;;;;;;947030;150;27442;-76
2022/04/22 08:04:19;;;;;;;7.45;6.65;;;31.90;36.40;;;;;;947603;148;27963;-76
2022/04/22 08:06:45;;;;;;;4.20;3.90;;;31.90;36.40;;;;;;946881;148;27272;-76
2022/04/22 08:09:12;;;;;;;4.25;3.85;;;31.90;35.70;;;;;;948016;147;27857;-76
2022/04/22 08:11:38;;;;;;;3.40;3.10;;;31.90;35.20;;;;;;948896;150;27675;-76
2022/04/22 08:14:05;;;;;;;3.55;3.25;;;31.80;35.20;;;;;;947990;148;27331;-76
2022/04/22 08:16:32;;;;;;;3.52;3.27;;;31.60;35.40;;;;;;948617;150;27415;-76
2022/04/22 08:18:58;;;;;;;5.30;2.67;;;31.60;35.30;;;;;;947266;150;27325;-76
2022/04/22 08:21:25;;;;;;;3.05;2.85;;;31.60;35.20;;;;;;947741;148;27428;-75
2022/04/22 08:23:51;;;;;;;3.12;2.92;;;31.60;35.20;;;;;;944942;148;27324;-75
2022/04/22 08:26:18;;;;;;;3.25;3.05;;;31.70;35.70;;;;;;939299;148;27402;-76
2022/04/22 08:28:44;;;;;;;3.20;3.00;;;31.70;35.40;;;;;;934970;150;27432;-75
2022/04/22 08:31:11;;;;;;;3.50;3.20;;;31.90;34.90;;;;;;933159;152;27298;-75
2022/04/22 08:33:38;;;;;;;3.50;3.20;;;32.00;34.30;;;;;;934524;149;27327;-75
2022/04/22 08:36:04;;;;;;;3.20;3.00;;;32.00;34.20;;;;;;934245;151;27269;-75
2022/04/22 08:38:31;;;;;;;2.83;2.62;;;32.00;34.30;;;;;;935087;152;27362;-75
2022/04/22 08:40:58;;;;;;;3.25;3.05;;;32.10;35.20;;;;;;933810;152;28579;-76
2022/04/22 08:43:24;;;;;;;3.52;3.33;;;32.20;34.60;;;;;;934420;152;27289;-75
2022/04/22 08:45:51;;;;;;;3.45;3.08;;;32.30;33.70;;;;;;933363;151;27325;-75
2022/04/22 08:51:02;;;;;;;3.08;2.87;;;32.50;33.40;;;;;;934031;152;27948;-75
2022/04/22 08:53:28;;;;;;;3.75;2.90;;;32.50;32.90;;;;;;935961;152;27318;-75
2022/04/22 08:55:57;;;;;;;3.08;2.87;;;32.60;33.40;;;;;;932958;151;27332;-76
2022/04/22 08:58:27;;;;;;;3.00;2.80;;;32.70;33.30;;;;;;934200;152;27367;-76
2022/04/22 09:00:53;;;;;;;3.00;2.80;;;32.90;33.60;;;;;;934635;149;27673;-75
2022/04/22 09:03:20;;;;;;;3.40;3.10;;;33.00;32.60;;;;;;933040;150;28578;-75
2022/04/22 09:05:46;;;;;;;2.83;2.62;;;33.20;32.20;;;;;;933525;152;27286;-76
2022/04/22 09:08:13;;;;;;;3.20;3.00;;;33.20;31.90;;;;;;935820;150;27753;-76
2022/04/22 09:10:40;;;;;;;4.85;4.45;;;33.20;31.20;;;;;;935177;150;27826;-76
2022/04/22 09:13:12;;;;;;;6.12;5.62;;;33.10;31.70;;;;;;934508;149;27789;-76
2022/04/22 09:15:41;;;;;;;4.85;4.45;;;33.10;31.00;;;;;;935211;149;28449;-76
2022/04/22 09:18:11;;;;;;;3.45;3.15;;;33.10;31.00;;;;;;933687;152;27286;-76
2022/04/22 09:20:37;;;;;;;3.45;3.15;;;33.00;31.10;;;;;;933848;152;27308;-76
2022/04/22 09:23:05;;;;;;;4.05;3.10;;;33.00;30.50;;;;;;934533;152;27362;-76
2022/04/22 09:25:32;;;;;;;3.50;3.17;;;32.90;30.40;;;;;;932410;152;28502;-76
2022/04/22 09:28:10;;;;;;;3.15;2.95;;;32.70;30.50;;;;;;942737;151;27450;-76
2022/04/22 09:30:35;;;;;;;2.77;2.58;;;32.70;30.80;;;;;;942003;148;27270;-76
2022/04/22 09:33:02;;;;;;;4.60;4.15;;;32.60;30.00;;;;;;940918;150;27290;-76
2022/04/22 09:35:29;;;;;;;3.60;3.17;;;32.50;30.00;;;;;;942219;148;27448;-75
2022/04/22 09:43:39;;;;;;;3.17;2.90;;;31.90;30.00;;;;;;943450;151;27766;-75
2022/04/22 09:46:06;;;;;;;2.95;2.75;;;31.70;30.00;;;;;;941946;151;27312;-75
2022/04/22 09:48:42;;;;;;;4.53;3.30;;;31.50;30.00;;;;;;941444;151;27423;-75
2022/04/22 09:51:08;;;;;;;3.27;3.08;;;31.30;30.20;;;;;;944098;148;27348;-75
2022/04/22 09:53:35;;;;;;;2.83;2.62;;;31.10;29.80;;;;;;938444;151;27283;-75
2022/04/22 09:56:07;;;;;;;4.40;3.40;;;30.90;30.60;;;;;;941473;151;27846;-75
2022/04/22 09:58:34;;;;;;;3.58;2.45;;;30.70;30.50;;;;;;943702;150;27425;-75
2022/04/22 10:01:03;;;;;;;3.90;3.50;;;30.50;30.40;;;;;;941375;150;27328;-75
2022/04/22 10:03:36;;;;;;;2.90;2.70;;;30.30;30.00;;;;;;940037;148;27392;-75
2022/04/22 10:06:03;;;;;;;2.70;2.55;;;29.90;30.20;;;;;;942241;150;27443;-75
2022/04/22 10:08:34;;;;;;;2.85;2.65;;;29.60;30.30;;;;;;942068;148;27413;-75
2022/04/22 10:11:01;;;;;;;3.10;2.80;;;29.20;30.20;;;;;;943167;150;27309;-75
2022/04/22 10:13:25;;;;;;;3.08;2.87;;;28.80;30.30;;;;;;941407;151;27265;-75
2022/04/22 10:15:52;;;;;;;3.12;2.92;;;28.40;30.50;;;;;;942083;150;27453;-75
2022/04/22 10:18:20;;;;;;;3.40;3.20;;;28.00;30.50;;;;;;941596;151;27356;-75
2022/04/22 10:20:46;;;;;;;3.50;3.20;;;27.70;30.70;;;;;;942067;150;27425;-75
2022/04/22 10:23:12;;;;;;;3.15;2.95;;;27.30;30.70;;;;;;942487;148;27363;-75
2022/04/22 10:25:39;;;;;;;2.83;2.62;;;26.90;30.70;;;;;;941575;148;27476;-75
2022/04/22 10:28:05;;;;;;;3.05;2.77;;;26.50;31.00;;;;;;934602;150;27401;-75
2022/04/22 10:30:31;;;;;;;3.47;3.17;;;26.10;31.30;;;;;;934316;149;27366;-75
2022/04/22 10:32:58;;;;;;;3.50;3.20;;;25.70;32.20;;;;;;934936;149;28460;-75
2022/04/22 10:35:25;;;;;;;3.10;2.90;;;25.40;31.10;;;;;;932244;150;27349;-75
2022/04/22 10:37:52;;;;;;;3.08;2.87;;;25.10;32.00;;;;;;934396;151;27312;-75
2022/04/22 10:40:21;;;;;;;3.20;2.90;;;24.70;32.40;;;;;;936602;149;27334;-75
2022/04/22 10:42:47;;;;;;;2.98;2.77;;;24.40;32.70;;;;;;935058;151;27376;-74
2022/04/22 10:47:59;;;;;;;3.10;2.90;;;23.90;33.50;;;;;;933421;149;27808;-75
2022/04/22 10:50:31;;;;;;;3.35;3.15;;;23.60;33.80;;;;;;933228;149;27321;-75
2022/04/22 10:53:02;;;;;;;3.40;3.10;;;23.40;34.00;;;;;;933642;149;27289;-75
2022/04/22 10:55:24;;;;;;;3.42;3.20;;;23.20;34.30;;;;;;924831;149;27319;-75
2022/04/22 10:57:51;;;;;;;2.95;2.75;;;23.00;35.00;;;;;;933359;150;27336;-75
2022/04/22 11:00:17;;;;;;;3.45;3.08;;;22.90;35.00;;;;;;932676;152;27397;-75
2022/04/22 11:02:46;;;;;;;3.12;2.92;;;22.80;35.20;;;;;;933042;150;27421;-75
2022/04/22 11:05:25;;;;;;;3.67;3.27;;;22.70;35.40;;;;;;933345;150;27398;-75
2022/04/22 11:07:58;;;;;;;3.42;3.08;;;22.70;35.60;;;;;;933802;151;27352;-75
2022/04/22 11:10:29;;;;;;;5.22;3.98;;;22.70;35.60;;;;;;934483;151;28450;-75
2022/04/22 11:12:56;;;;;;;3.47;3.17;;;22.60;35.50;;;;;;932121;151;27311;-74
2022/04/22 11:15:50;;;;;;;3.50;3.20;;;22.50;35.50;;;;;;933967;151;27282;-75
2022/04/22 11:18:14;;;;;;;3.85;3.45;;;22.40;35.60;;;;;;935022;151;27444;-75
2022/04/22 11:20:48;;;;;;;2.92;2.72;;;22.30;35.80;;;;;;933577;151;27344;-75
2022/04/22 11:23:13;;;;;;;2.92;2.72;;;22.30;36.00;;;;;;934771;151;27394;-75
2022/04/22 11:25:39;;;;;;;3.10;2.90;;;22.20;36.30;;;;;;933939;149;27348;-75
2022/04/22 11:28:06;;;;;;;2.87;2.67;;;22.30;36.60;;;;;;934433;150;27366;-75
2022/04/22 11:30:33;;;;;;;3.27;3.08;;;22.30;36.70;;;;;;932881;152;27429;-75
2022/04/22 11:33:12;;;;;;;3.00;2.77;;;22.40;36.70;;;;;;935663;151;27361;-75
2022/04/22 11:35:39;;;;;;;5.00;4.00;;;22.50;36.70;;;;;;932642;151;27458;-75
2022/04/22 11:38:05;;;;;;;3.45;3.15;;;22.50;36.80;;;;;;932459;151;27318;-75
2022/04/22 11:40:40;;;;;;;3.25;3.05;;;22.60;36.90;;;;;;934905;151;27473;-75
2022/04/22 11:43:14;;;;;;;3.47;3.17;;;22.70;36.80;;;;;;935545;151;27356;-75
2022/04/22 11:45:39;;;;;;;3.17;2.87;;;22.80;36.80;;;;;;934785;151;27477;-75
2022/04/22 11:48:11;;;;;;;3.30;3.00;;;22.90;36.80;;;;;;932793;151;27338;-74
2022/04/22 11:50:40;;;;;;;3.30;2.90;;;22.90;36.60;;;;;;934186;151;27277;-75
2022/04/22 11:53:43;;;;;;;4.87;3.12;;;23.00;36.50;;;;;;934612;151;27454;-75
2022/04/22 11:55:49;;;;;;;4.60;2.83;;;23.00;36.30;;;;;;932673;151;27339;-74
2022/04/22 11:58:19;;;;;;;3.33;2.92;;;23.00;36.10;;;;;;937753;149;27366;-75
2022/04/22 12:06:14;;;;;;;3.33;3.00;;;22.90;36.20;;;;;;934865;151;27340;-74
2022/04/22 12:08:52;;;;;;;3.37;3.08;;;22.90;36.30;;;;;;934159;150;27341;-74
2022/04/22 12:11:19;;;;;;;3.20;3.00;;;22.90;36.30;;;;;;935434;151;27402;-74
2022/04/22 12:13:46;;;;;;;3.00;2.80;;;22.90;36.30;;;;;;935115;151;27412;-74
2022/04/22 12:16:12;;;;;;;3.12;2.72;;;22.80;36.20;;;;;;932626;151;27416;-74
2022/04/22 12:18:40;;;;;;;3.00;2.80;;;22.70;36.30;;;;;;933819;151;27352;-75
2022/04/22 12:21:05;;;;;;;3.20;2.92;;;22.70;36.50;;;;;;935092;151;27365;-74
2022/04/22 12:23:35;;;;;;;3.35;3.05;;;22.70;36.60;;;;;;933672;151;28492;-74
2022/04/22 12:26:01;;;;;;;4.70;2.92;;;22.70;36.50;;;;;;935950;149;27295;-74
2022/04/22 12:28:28;;;;;;;3.05;2.70;;;22.70;36.60;;;;;;933523;149;27384;-75
2022/04/22 12:30:54;;;;;;;2.83;2.62;;;22.70;36.70;;;;;;933974;151;27328;-74
2022/04/22 12:33:21;;;;;;;3.60;3.30;;;22.70;36.80;;;;;;932891;151;27345;-74
2022/04/22 12:35:49;;;;;;;2.60;2.40;;;22.70;36.70;;;;;;933033;151;27334;-75
2022/04/22 12:38:14;;;;;;;2.80;2.60;;;22.70;37.30;;;;;;935484;151;27315;-74
2022/04/22 12:40:47;;;;;;;2.87;2.67;;;22.70;36.80;;;;;;935144;149;27809;-74
2022/04/22 12:43:28;;;;;;;2.95;2.75;;;22.80;37.00;;;;;;933638;151;27792;-74
2022/04/22 12:54:24;;;;;;;3.60;3.30;;;22.80;36.70;;;;;;922175;154;27439;-75
2022/04/22 12:56:52;;;;;;;2.58;2.37;;;22.70;36.60;;;;;;917828;150;27843;-75
2022/04/22 12:59:17;;;;;;;2.77;2.58;;;22.70;36.70;;;;;;933411;149;27356;-74
2022/04/22 13:01:46;;;;;;;3.30;2.45;;;22.70;36.80;;;;;;937229;149;27378;-74
2022/04/22 13:04:20;;;;;;;2.95;2.75;;;22.70;36.80;;;;;;934872;149;28234;-74
2022/04/22 13:06:47;;;;;;;3.33;2.60;;;22.80;36.80;;;;;;935806;149;27337;-74
2022/04/22 13:09:13;;;;;;;2.62;2.22;;;22.80;36.70;;;;;;933831;149;27334;-75
2022/04/22 13:11:45;;;;;;;2.55;2.35;;;22.70;36.60;;;;;;933533;149;27322;-75
2022/04/22 13:14:08;;;;;;;3.67;2.33;;;22.70;36.80;;;;;;935028;149;27480;-74
2022/04/22 13:16:35;;;;;;;2.37;2.20;;;22.80;36.80;;;;;;935991;149;27438;-74
2022/04/22 13:19:02;;;;;;;2.40;2.20;;;22.80;36.70;;;;;;937761;149;27416;-74
2022/04/22 13:21:28;;;;;;;2.85;2.20;;;22.90;36.70;;;;;;935170;149;27352;-74
2022/04/22 13:23:55;;;;;;;2.52;2.33;;;22.90;36.30;;;;;;936080;149;27355;-74
2022/04/22 13:26:21;;;;;;;2.40;2.20;;;22.90;36.30;;;;;;937464;149;27448;-74
2022/04/22 13:28:48;;;;;;;2.25;2.05;;;23.00;36.20;;;;;;933713;149;27494;-74
2022/04/22 13:31:15;;;;;;;2.22;2.02;;;23.00;36.20;;;;;;922544;151;27457;-74
2022/04/22 13:33:41;;;;;;;2.47;2.27;;;23.00;36.20;;;;;;937563;151;27327;-74
2022/04/22 13:36:10;;;;;;;2.62;2.35;;;23.00;36.30;;;;;;939279;149;27325;-74
2022/04/22 13:38:35;;;;;;;2.10;2.00;;;23.10;36.40;;;;;;920198;155;27471;-74
2022/04/22 13:41:01;;;;;;;2.10;1.82;;;23.20;36.60;;;;;;939827;151;27345;-74
2022/04/22 13:43:30;;;;;;;2.95;1.87;;;23.30;36.40;;;;;;937580;151;27462;-74
2022/04/22 13:54:17;;;;;;;1.90;1.80;;;23.70;36.50;;;;;;939402;151;27449;-75
2022/04/22 13:56:44;;;;;;;2.30;2.10;;;23.80;35.90;;;;;;939852;149;27355;-74
2022/04/22 13:59:10;;;;;;;1.90;1.80;;;23.90;35.70;;;;;;937361;151;27407;-74
2022/04/22 14:01:37;;;;;;;2.27;2.02;;;23.90;35.50;;;;;;936060;151;27316;-74